Time;durP1;ratioP1;P1;durP2;ratioP2;P2;SDS_P1;SDS_P2;PMS_P1;PMS_P2;Temp;Humidity;BMP_temperature;BMP_pressure;BME280_temperature;BME280_humidity;BME280_pressure;Samples;Min_cycle;Max_cycle;Signal;HPM_P1;HPM_P2
2023/01/29 09:05:42;;;;;;;9.40;6.10;;;;;;;0.75;75.46;100159.25;5173208;27;20553;-83
2023/01/29 09:08:10;;;;;;;8.60;6.57;;;;;;;1.44;73.19;100170.34;5138747;27;38897;-84
2023/01/29 09:10:37;;;;;;;9.17;6.17;;;;;;;2.03;70.31;100190.03;5139020;27;40697;-83
2023/01/29 09:13:05;;;;;;;8.40;6.70;;;;;;;2.39;66.96;100181.91;5156077;27;43034;-84
2023/01/29 09:15:33;;;;;;;7.83;5.80;;;;;;;2.94;64.92;100202.34;5138732;27;40999;-84
2023/01/29 09:18:04;;;;;;;6.73;5.30;;;;;;;3.37;64.32;100191.38;5138121;27;38868;-85
2023/01/29 09:20:32;;;;;;;7.77;5.93;;;;;;;3.76;61.49;100209.22;5155918;27;40663;-84
2023/01/29 09:23:05;;;;;;;8.00;6.47;;;;;;;4.16;59.46;100219.13;5155980;27;42536;-85
2023/01/29 09:25:33;;;;;;;6.90;5.87;;;;;;;4.81;58.43;100246.09;5137486;27;41045;-83
2023/01/29 09:28:01;;;;;;;6.00;5.40;;;;;;;4.95;56.36;100238.81;5154552;27;41271;-84
2023/01/29 09:30:29;;;;;;;5.87;5.27;;;;;;;5.08;56.03;100242.97;5142987;27;40408;-83
2023/01/29 09:32:57;;;;;;;6.87;5.50;;;;;;;5.29;55.72;100245.22;5146645;27;42093;-84
2023/01/29 09:35:24;;;;;;;7.37;5.30;;;;;;;5.46;53.02;100265.03;5154624;27;40688;-83
2023/01/29 09:37:52;;;;;;;6.93;4.90;;;;;;;5.65;54.26;100255.91;5154771;27;38599;-83
2023/01/29 09:40:26;;;;;;;5.53;4.30;;;;;;;5.76;53.39;100253.91;5154625;27;40489;-83
2023/01/29 09:42:58;;;;;;;5.73;4.70;;;;;;;5.67;52.88;100243.59;5141631;27;44169;-83
2023/01/29 09:45:28;;;;;;;5.83;4.70;;;;;;;5.61;52.84;100243.69;5153729;27;42683;-83
2023/01/29 09:47:59;;;;;;;5.87;4.63;;;;;;;5.72;53.00;100268.88;5136253;27;39963;-83
2023/01/29 09:50:31;;;;;;;6.10;4.93;;;;;;;5.68;52.99;100266.34;5136429;27;41682;-84
2023/01/29 09:53:05;;;;;;;5.40;4.90;;;;;;;5.68;53.16;100256.72;5136442;27;42321;-84
2023/01/29 09:55:39;;;;;;;5.13;4.57;;;;;;;5.92;52.13;100296.56;5153490;27;41221;-85
2023/01/29 09:58:18;;;;;;;5.20;4.60;;;;;;;5.83;52.59;100289.69;5150274;27;40735;-83
2023/01/29 10:00:52;;;;;;;6.17;4.47;;;;;;;5.76;52.89;100295.97;5135950;27;41898;-83
2023/01/29 10:03:40;;;;;;;4.93;4.27;;;;;;;5.59;52.52;100295.41;5149570;27;42848;-83
2023/01/29 10:06:23;;;;;;;5.30;4.80;;;;;;;5.47;52.69;100320.16;5135883;27;42294;-83
2023/01/29 10:09:14;;;;;;;4.57;4.17;;;;;;;5.24;53.26;100320.59;5153118;27;39725;-84
2023/01/29 10:11:53;;;;;;;5.00;4.33;;;;;;;5.06;52.73;100326.16;5152775;27;42068;-84
2023/01/29 10:14:36;;;;;;;5.03;4.10;;;;;;;5.02;53.34;100333.22;5135439;27;43174;-84
2023/01/29 10:17:20;;;;;;;5.33;4.60;;;;;;;4.84;53.71;100301.13;5121192;27;41604;-84
2023/01/29 10:20:01;;;;;;;5.73;5.13;;;;;;;4.89;53.45;100288.81;5121833;27;39240;-83
2023/01/29 10:22:56;;;;;;;5.47;4.73;;;;;;;5.03;52.81;100287.69;5121304;27;42224;-84
2023/01/29 10:25:24;;;;;;;5.57;5.07;;;;;;;5.13;52.82;100269.16;5139303;27;42907;-84
2023/01/29 10:27:56;;;;;;;5.83;4.93;;;;;;;5.12;52.55;100249.03;5138863;27;43177;-84
2023/01/29 10:30:32;;;;;;;6.43;4.83;;;;;;;5.24;52.69;100235.66;5138599;27;41455;-84
2023/01/29 10:33:03;;;;;;;7.07;4.87;;;;;;;5.45;52.37;100237.00;5121633;27;41906;-83
2023/01/29 10:35:34;;;;;;;5.97;4.97;;;;;;;5.56;51.72;100235.94;5121258;27;41482;-87
2023/01/29 10:38:18;;;;;;;7.33;5.57;;;;;;;5.76;51.69;100220.59;5121088;27;41120;-85
2023/01/29 10:40:53;;;;;;;5.90;5.30;;;;;;;6.03;51.46;100229.69;5154005;27;40827;-83
2023/01/29 10:43:29;;;;;;;5.33;4.80;;;;;;;6.27;51.15;100219.53;5121297;27;41690;-84
2023/01/29 10:46:13;;;;;;;5.67;4.67;;;;;;;6.50;50.60;100217.19;5121030;27;41705;-83
2023/01/29 10:48:55;;;;;;;5.87;5.27;;;;;;;6.81;49.62;100228.69;5120904;27;43622;-82
2023/01/29 10:51:37;;;;;;;6.33;5.27;;;;;;;6.82;48.04;100230.41;5120963;27;39179;-83
2023/01/29 10:54:26;;;;;;;4.97;4.50;;;;;;;6.82;48.97;100206.72;5136089;27;42430;-83
2023/01/29 10:57:08;;;;;;;6.00;5.20;;;;;;;6.90;49.12;100205.69;5153490;27;42750;-83
2023/01/29 10:59:52;;;;;;;5.13;4.37;;;;;;;7.15;49.18;100217.31;5137908;27;41271;-84
2023/01/29 11:02:21;;;;;;;6.57;4.53;;;;;;;7.61;48.61;100216.88;5121098;27;40960;-85
2023/01/29 11:04:49;;;;;;;4.50;4.03;;;;;;;7.56;48.30;100203.81;5119759;27;42255;-83
2023/01/29 11:07:19;;;;;;;5.17;4.67;;;;;;;7.73;47.88;100205.97;5120513;27;43309;-83
2023/01/29 11:09:56;;;;;;;4.87;4.43;;;;;;;8.57;47.64;100190.19;5120564;27;43664;-84
2023/01/29 11:12:29;;;;;;;4.57;4.27;;;;;;;9.39;45.45;100186.47;5120718;27;38701;-83
2023/01/29 11:15:05;;;;;;;5.20;4.70;;;;;;;10.33;44.09;100202.25;5120401;27;40730;-83
2023/01/29 11:17:34;;;;;;;5.33;4.80;;;;;;;11.30;42.82;100222.91;5120849;27;41739;-84
2023/01/29 11:20:01;;;;;;;5.40;4.90;;;;;;;11.82;42.19;100214.38;5120208;27;42288;-83
2023/01/29 11:22:30;;;;;;;5.57;5.00;;;;;;;11.96;40.10;100220.84;5120416;27;38331;-84
2023/01/29 11:25:10;;;;;;;5.60;5.10;;;;;;;12.10;40.55;100213.09;5137283;27;43136;-84
2023/01/29 11:27:43;;;;;;;6.00;5.20;;;;;;;11.95;40.24;100197.88;5136287;27;44289;-84
2023/01/29 11:42:20;;;;;;;5.93;5.13;;;;;;;12.97;38.73;100164.47;4997633;28;42882;-83
2023/01/29 11:44:49;;;;;;;5.47;4.97;;;;;;;12.92;35.97;100134.59;5022556;27;41192;-85
2023/01/29 11:47:23;;;;;;;5.87;4.53;;;;;;;12.86;37.05;100150.84;5120236;27;39090;-84
2023/01/29 11:49:52;;;;;;;5.20;4.80;;;;;;;12.44;35.54;100181.31;5119814;27;40514;-82
2023/01/29 12:00:45;;;;;;;4.03;3.73;;;;;;;10.61;38.83;100071.31;4948002;28;39785;-84
2023/01/29 12:03:20;;;;;;;5.27;4.77;;;;;;;10.58;39.30;100082.03;5021796;28;44017;-83
2023/01/29 12:05:55;;;;;;;4.83;3.90;;;;;;;10.38;39.78;100049.34;5130470;27;41538;-84
2023/01/29 12:08:24;;;;;;;5.40;4.90;;;;;;;10.60;39.73;100089.00;5119924;27;42414;-83
2023/01/29 12:11:08;;;;;;;5.30;4.27;;;;;;;10.57;38.90;100097.06;5119926;27;39095;-84
2023/01/29 12:13:37;;;;;;;4.67;4.27;;;;;;;10.74;39.31;100093.69;5119734;27;41884;-83
2023/01/29 12:16:13;;;;;;;4.90;4.50;;;;;;;10.76;39.49;100078.56;5119502;27;44982;-84
2023/01/29 12:18:46;;;;;;;4.40;4.00;;;;;;;11.29;38.78;100108.00;5136881;27;45582;-83
2023/01/29 12:21:20;;;;;;;5.13;3.97;;;;;;;12.05;38.24;100098.25;5119595;27;38770;-83
2023/01/29 12:23:54;;;;;;;4.53;3.67;;;;;;;13.39;37.57;100112.63;5133749;27;41559;-83
2023/01/29 12:26:29;;;;;;;4.40;3.87;;;;;;;14.45;35.61;100117.31;5119301;27;41663;-83
2023/01/29 12:29:16;;;;;;;4.67;4.27;;;;;;;14.57;34.17;100113.06;5136614;27;41942;-84
2023/01/29 12:31:52;;;;;;;4.63;4.20;;;;;;;15.29;34.23;100113.09;5119107;27;40012;-83
2023/01/29 12:34:27;;;;;;;4.00;3.60;;;;;;;15.85;33.67;100113.16;5119103;27;42030;-83
2023/01/29 12:37:02;;;;;;;4.83;4.00;;;;;;;16.10;32.96;100107.97;5136545;27;43385;-84
2023/01/29 12:39:31;;;;;;;4.57;3.97;;;;;;;16.40;32.25;100126.47;5133337;27;42130;-83
2023/01/29 12:42:03;;;;;;;4.77;4.37;;;;;;;15.53;32.31;100088.50;5136823;27;39852;-84
2023/01/29 12:44:35;;;;;;;4.57;4.17;;;;;;;16.38;31.90;100090.97;5135766;27;42251;-84
2023/01/29 12:47:07;;;;;;;6.30;4.80;;;;;;;17.24;30.91;100108.25;5118912;27;42076;-84
2023/01/29 12:49:39;;;;;;;4.23;3.83;;;;;;;17.65;30.17;100112.53;5133621;27;43174;-83
2023/01/29 12:52:12;;;;;;;4.97;3.80;;;;;;;17.37;30.21;100092.16;5119231;27;38750;-83
2023/01/29 12:54:43;;;;;;;4.63;4.23;;;;;;;16.69;30.24;100095.97;5119131;27;40828;-84
2023/01/29 12:57:21;;;;;;;4.20;3.80;;;;;;;16.57;31.25;100096.78;5136266;27;41979;-84
2023/01/29 12:59:55;;;;;;;6.23;3.87;;;;;;;16.72;30.77;100101.13;5134378;27;42161;-84
2023/01/29 13:02:34;;;;;;;4.23;3.57;;;;;;;17.13;29.84;100092.06;5152451;27;39990;-84
2023/01/29 13:05:13;;;;;;;4.10;3.80;;;;;;;17.50;29.79;100083.16;5135601;27;42360;-84
2023/01/29 13:07:46;;;;;;;3.97;3.57;;;;;;;17.74;29.97;100048.41;5119476;27;41438;-84
2023/01/29 13:10:18;;;;;;;4.60;3.97;;;;;;;18.28;29.18;100058.69;5118473;27;43464;-84
2023/01/29 13:12:56;;;;;;;4.13;3.73;;;;;;;18.92;27.45;100092.22;5118734;27;41894;-84
2023/01/29 13:15:29;;;;;;;4.53;4.23;;;;;;;19.21;27.70;100083.72;5135628;27;41651;-84
2023/01/29 13:18:01;;;;;;;4.23;3.93;;;;;;;19.59;27.23;100081.59;5132588;27;43545;-84
2023/01/29 13:20:34;;;;;;;4.80;3.87;;;;;;;18.75;27.87;100075.72;5134544;27;43126;-84
2023/01/29 13:23:17;;;;;;;4.53;4.13;;;;;;;17.16;28.94;100063.28;5118896;27;41507;-84
2023/01/29 13:25:45;;;;;;;4.57;4.17;;;;;;;16.25;30.06;100029.44;5134989;27;41840;-84
2023/01/29 13:28:19;;;;;;;4.80;4.40;;;;;;;15.53;30.83;100035.09;5118361;27;43516;-84
2023/01/29 13:30:47;;;;;;;4.90;4.50;;;;;;;14.52;31.93;100001.38;5118661;27;42372;-84
2023/01/29 13:33:23;;;;;;;4.73;4.33;;;;;;;13.64;33.04;99990.56;5118034;27;41510;-84
2023/01/29 13:35:59;;;;;;;4.53;4.13;;;;;;;12.77;34.05;99981.19;5135279;27;42708;-83
2023/01/29 13:38:34;;;;;;;4.70;4.30;;;;;;;12.10;34.78;99995.34;5132708;27;42680;-83
2023/01/29 13:41:07;;;;;;;4.27;3.87;;;;;;;11.46;35.19;100009.94;5135413;27;42604;-84
2023/01/29 13:43:38;;;;;;;5.17;4.17;;;;;;;10.82;36.12;100001.47;5132560;27;40682;-84
2023/01/29 13:46:09;;;;;;;4.40;4.00;;;;;;;10.35;37.24;100007.09;5118319;27;40901;-83
2023/01/29 13:48:43;;;;;;;4.40;4.00;;;;;;;9.85;37.71;99984.50;5118141;27;42187;-84
2023/01/29 13:51:36;;;;;;;4.80;4.40;;;;;;;9.28;38.46;99951.56;5137160;27;42487;-85
2023/01/29 13:57:50;;;;;;;4.63;3.97;;;;;;;8.69;39.86;99973.22;5121047;27;43088;-82
2023/01/29 14:04:31;;;;;;;6.00;4.70;;;;;;;8.08;41.67;99970.09;5127009;27;41169;-84
2023/01/29 14:07:03;;;;;;;4.50;4.10;;;;;;;7.89;41.65;99961.97;5121860;27;38969;-84
2023/01/29 14:10:12;;;;;;;5.10;4.70;;;;;;;7.69;42.21;99934.53;5121339;27;40793;-84
2023/01/29 14:12:45;;;;;;;5.77;5.27;;;;;;;7.88;42.11;99941.78;5121639;27;41660;-83
2023/01/29 14:15:32;;;;;;;5.27;4.77;;;;;;;8.33;42.04;99942.88;5121291;27;41093;-84
2023/01/29 14:18:22;;;;;;;4.93;4.33;;;;;;;9.44;41.07;99936.81;5121715;27;39919;-84
2023/01/29 14:20:58;;;;;;;6.30;5.07;;;;;;;10.26;39.20;99933.31;5117443;27;42090;-84
2023/01/29 14:23:48;;;;;;;5.47;4.77;;;;;;;10.63;39.12;99942.31;5120916;27;41598;-84
2023/01/29 14:26:26;;;;;;;4.80;3.87;;;;;;;11.24;38.98;99940.31;5121233;27;41344;-85
2023/01/29 14:29:01;;;;;;;5.40;4.90;;;;;;;11.66;37.38;99936.47;5121014;27;38818;-84
2023/01/29 14:31:32;;;;;;;5.00;4.30;;;;;;;11.67;37.05;99940.84;5121420;27;42460;-86
2023/01/29 14:34:02;;;;;;;5.30;4.80;;;;;;;11.59;37.21;99938.59;5120831;27;43196;-85
2023/01/29 14:36:40;;;;;;;4.97;4.50;;;;;;;11.83;37.05;99940.06;5121055;27;40978;-85
2023/01/29 14:39:26;;;;;;;4.30;4.00;;;;;;;11.62;36.37;99932.28;5136373;27;40083;-83
2023/01/29 14:41:53;;;;;;;6.00;5.10;;;;;;;11.26;37.55;99932.25;5121352;27;41981;-85
2023/01/29 14:44:47;;;;;;;5.40;4.90;;;;;;;10.84;37.69;99941.31;5137841;27;43152;-83
2023/01/29 14:47:19;;;;;;;5.40;4.90;;;;;;;10.86;38.02;99935.94;5138194;27;41965;-83
2023/01/29 14:49:53;;;;;;;5.23;4.73;;;;;;;11.32;38.01;99929.31;5120770;27;41860;-84
2023/01/29 14:52:25;;;;;;;5.50;5.00;;;;;;;11.84;37.25;99930.28;5138049;27;43522;-84
2023/01/29 14:55:03;;;;;;;6.10;5.57;;;;;;;11.84;37.52;99915.22;5120504;27;43948;-82
2023/01/29 14:57:31;;;;;;;5.10;4.63;;;;;;;11.36;37.62;99902.59;5138025;27;41152;-84
2023/01/29 15:00:04;;;;;;;5.67;5.07;;;;;;;10.82;37.87;99927.28;5120637;27;39324;-84
2023/01/29 15:02:39;;;;;;;5.27;4.73;;;;;;;10.16;38.71;99926.69;5120920;27;41001;-84
2023/01/29 15:05:12;;;;;;;6.37;5.33;;;;;;;9.50;39.78;99894.25;5120482;27;41863;-84
2023/01/29 15:07:46;;;;;;;5.07;4.57;;;;;;;8.95;40.38;99885.06;5120600;27;40943;-83
2023/01/29 15:10:19;;;;;;;4.87;4.47;;;;;;;8.52;41.59;99885.84;5120666;27;39378;-81
2023/01/29 15:12:50;;;;;;;5.70;5.20;;;;;;;8.09;42.00;99887.38;5153055;27;41899;-83
2023/01/29 15:15:25;;;;;;;6.63;5.17;;;;;;;7.85;42.52;99891.75;5120706;27;41871;-83
2023/01/29 15:17:59;;;;;;;5.80;5.20;;;;;;;7.51;42.78;99889.44;5153114;27;42152;-83
2023/01/29 15:20:30;;;;;;;6.03;5.53;;;;;;;7.19;43.46;99887.84;5138380;27;38949;-82
2023/01/29 15:22:58;;;;;;;5.60;5.10;;;;;;;6.61;44.30;99836.16;5120626;27;40779;-84
2023/01/29 15:25:35;;;;;;;6.10;4.53;;;;;;;6.47;44.91;99859.38;5137541;27;44234;-82
2023/01/29 15:28:09;;;;;;;7.13;4.90;;;;;;;6.30;45.23;99877.44;5120206;27;42453;-83
2023/01/29 15:30:37;;;;;;;6.00;5.40;;;;;;;6.04;46.22;99860.66;5120519;27;38875;-83
2023/01/29 15:33:10;;;;;;;6.87;5.70;;;;;;;5.72;46.82;99831.69;5120854;27;41083;-83
2023/01/29 15:35:40;;;;;;;5.97;5.37;;;;;;;5.61;47.35;99849.53;5135228;27;43170;-83
2023/01/29 15:38:16;;;;;;;6.30;5.13;;;;;;;5.27;48.26;99823.28;5119923;27;41042;-83
2023/01/29 15:40:53;;;;;;;6.47;5.60;;;;;;;5.09;48.78;99827.22;5120304;27;38906;-84
2023/01/29 15:43:23;;;;;;;5.60;4.63;;;;;;;4.87;48.79;99815.53;5119639;27;40786;-85
2023/01/29 15:45:52;;;;;;;5.83;5.23;;;;;;;4.74;49.58;99817.56;5137341;27;43826;-84
2023/01/29 15:48:27;;;;;;;5.30;4.80;;;;;;;4.52;49.92;99809.34;5119686;27;41687;-82
2023/01/29 15:50:56;;;;;;;7.00;4.90;;;;;;;4.46;49.97;99833.06;5153093;27;40988;-83
2023/01/29 15:53:35;;;;;;;5.77;5.17;;;;;;;4.18;51.10;99805.75;5136742;27;41871;-84
2023/01/29 15:56:09;;;;;;;6.00;5.00;;;;;;;4.10;51.47;99819.00;5137461;27;41887;-84
2023/01/29 15:58:40;;;;;;;5.83;5.23;;;;;;;3.96;51.98;99823.66;5120213;27;41097;-83
2023/01/29 16:01:10;;;;;;;6.17;5.43;;;;;;;3.65;52.60;99789.38;5119849;27;39860;-83
2023/01/29 16:03:38;;;;;;;7.47;5.83;;;;;;;3.32;52.57;99753.34;5119100;27;40645;-83
2023/01/29 16:06:07;;;;;;;6.93;5.33;;;;;;;3.50;53.04;99815.84;5119756;27;41807;-83
2023/01/29 16:08:36;;;;;;;5.07;4.53;;;;;;;3.33;52.92;99803.09;5119330;27;41467;-84
2023/01/29 16:11:07;;;;;;;6.20;5.33;;;;;;;3.13;53.78;99779.84;5119537;27;40155;-84
2023/01/29 16:13:41;;;;;;;5.37;4.87;;;;;;;2.79;54.06;99742.09;5136188;27;41718;-84
2023/01/29 16:16:20;;;;;;;8.90;5.77;;;;;;;2.97;54.66;99793.25;5119391;27;43549;-83
2023/01/29 16:18:50;;;;;;;6.63;5.80;;;;;;;2.85;55.63;99783.81;5119207;27;41473;-84
2023/01/29 16:21:26;;;;;;;6.30;5.50;;;;;;;2.76;55.38;99773.53;5136424;27;38754;-83
2023/01/29 16:23:56;;;;;;;6.53;5.10;;;;;;;2.69;55.64;99779.75;5106424;27;40489;-84
2023/01/29 16:26:28;;;;;;;6.13;5.27;;;;;;;2.45;55.95;99762.69;5097013;27;42180;-83
2023/01/29 16:29:05;;;;;;;6.30;5.67;;;;;;;2.49;55.99;99786.13;5124853;27;42046;-85
2023/01/29 16:31:35;;;;;;;6.27;5.03;;;;;;;2.39;55.42;99781.94;5117313;27;39086;-84
2023/01/29 16:34:09;;;;;;;7.03;5.50;;;;;;;2.22;55.39;99763.03;5135275;27;42585;-84
2023/01/29 16:36:37;;;;;;;6.10;5.10;;;;;;;1.91;55.55;99722.53;5118139;27;41960;-84
2023/01/29 16:39:14;;;;;;;8.73;6.10;;;;;;;2.09;55.76;99777.16;5115478;27;42401;-84
2023/01/29 16:41:43;;;;;;;7.70;5.60;;;;;;;2.17;56.47;99793.59;5118076;27;40100;-85
2023/01/29 16:44:32;;;;;;;7.90;5.70;;;;;;;2.04;57.13;99782.44;5116946;27;40356;-84
2023/01/29 16:47:06;;;;;;;6.30;5.27;;;;;;;1.85;56.82;99749.63;5115620;27;41635;-85
2023/01/29 16:49:48;;;;;;;6.67;5.43;;;;;;;1.93;57.47;99773.03;5117175;27;42179;-85
2023/01/29 16:52:20;;;;;;;6.90;5.63;;;;;;;1.75;57.40;99753.22;5114458;27;38787;-84
2023/01/29 16:54:47;;;;;;;8.27;5.90;;;;;;;1.70;58.05;99760.25;5113928;27;41299;-84
2023/01/29 16:57:21;;;;;;;7.07;6.30;;;;;;;1.74;58.77;99773.22;5110643;27;42863;-84
2023/01/29 16:59:54;;;;;;;10.00;6.27;;;;;;;1.57;59.64;99743.88;5114255;27;41770;-86
2023/01/29 17:02:26;;;;;;;7.60;5.63;;;;;;;1.63;58.65;99764.66;5117789;27;39956;-84
2023/01/29 17:04:58;;;;;;;6.37;5.73;;;;;;;1.44;59.80;99739.69;5133915;27;40348;-84
2023/01/29 17:07:27;;;;;;;7.67;5.83;;;;;;;1.49;60.64;99763.97;5115062;27;42978;-84
2023/01/29 17:10:00;;;;;;;7.83;6.30;;;;;;;1.48;60.62;99764.88;5153124;27;42330;-84
2023/01/29 17:12:31;;;;;;;8.33;6.40;;;;;;;1.32;60.16;99752.88;5135157;27;38912;-84
2023/01/29 17:15:01;;;;;;;8.80;6.73;;;;;;;1.40;60.23;99771.91;5118413;27;43170;-84
2023/01/29 17:17:30;;;;;;;7.30;6.50;;;;;;;1.37;61.04;99771.94;5118209;27;41552;-84
2023/01/29 17:19:59;;;;;;;8.73;6.00;;;;;;;1.03;61.26;99720.13;5118189;27;41638;-84
2023/01/29 17:22:27;;;;;;;8.43;6.37;;;;;;;1.19;62.53;99751.28;5117535;27;40605;-83
2023/01/29 17:24:54;;;;;;;8.17;6.53;;;;;;;0.88;62.41;99703.75;5118288;27;40693;-84
2023/01/29 17:27:23;;;;;;;8.23;6.27;;;;;;;1.15;62.27;99746.97;5121409;27;43332;-84
2023/01/29 17:29:53;;;;;;;7.03;6.10;;;;;;;1.23;62.90;99766.03;5121565;27;41141;-84
2023/01/29 17:32:21;;;;;;;9.67;7.50;;;;;;;1.01;63.50;99740.13;5121785;27;39221;-84
2023/01/29 17:34:49;;;;;;;7.77;6.50;;;;;;;1.14;63.67;99763.47;5122177;27;42178;-84
2023/01/29 17:37:18;;;;;;;9.67;6.70;;;;;;;1.15;63.48;99760.88;5121965;27;41610;-84
2023/01/29 17:39:49;;;;;;;8.17;6.40;;;;;;;1.12;63.25;99762.63;5139213;27;42927;-84
2023/01/29 17:42:17;;;;;;;10.17;7.13;;;;;;;0.99;63.10;99744.50;5139125;27;39843;-82
2023/01/29 17:44:45;;;;;;;8.70;7.27;;;;;;;1.02;65.03;99754.03;5122022;27;41018;-84
2023/01/29 17:47:15;;;;;;;8.37;6.30;;;;;;;0.98;64.52;99755.84;5121657;27;41569;-83
2023/01/29 17:49:43;;;;;;;9.63;7.47;;;;;;;1.03;64.46;99769.69;5126126;27;41061;-83
2023/01/29 17:52:11;;;;;;;9.93;7.57;;;;;;;0.96;64.39;99770.63;5121903;27;38865;-83
2023/01/29 17:54:38;;;;;;;9.03;7.30;;;;;;;0.87;64.81;99765.47;5135151;27;40758;-83
2023/01/29 17:57:06;;;;;;;10.23;8.20;;;;;;;0.84;64.29;99770.75;5138137;27;41879;-83
2023/01/29 17:59:34;;;;;;;10.40;8.40;;;;;;;0.81;64.65;99775.97;5128135;27;42905;-83
2023/01/29 18:02:02;;;;;;;11.17;7.37;;;;;;;0.76;64.55;99775.13;5139053;27;38995;-82
2023/01/29 18:04:32;;;;;;;9.27;7.40;;;;;;;0.77;64.07;99784.69;5137257;27;42654;-83
2023/01/29 18:06:59;;;;;;;10.17;7.00;;;;;;;0.81;64.04;99807.25;5132825;27;41444;-83
2023/01/29 18:09:27;;;;;;;10.30;7.03;;;;;;;0.66;64.13;99796.94;5122401;27;42337;-85
2023/01/29 18:11:55;;;;;;;10.70;7.93;;;;;;;0.25;65.01;99732.94;5122056;27;39038;-84
2023/01/29 18:14:23;;;;;;;9.80;7.97;;;;;;;0.50;64.54;99774.47;5121667;27;41322;-85
2023/01/29 18:16:51;;;;;;;12.43;8.90;;;;;;;0.54;65.23;99782.25;5121258;27;42071;-84
2023/01/29 18:19:22;;;;;;;11.37;8.47;;;;;;;0.42;66.06;99760.63;5121369;27;41866;-85
2023/01/29 18:21:52;;;;;;;14.50;9.60;;;;;;;0.49;65.80;99783.19;5156241;27;39981;-85
2023/01/29 18:24:21;;;;;;;11.10;7.73;;;;;;;0.48;65.68;99782.31;5121409;27;41471;-84
2023/01/29 18:26:49;;;;;;;11.60;8.20;;;;;;;0.48;65.68;99786.66;5138590;27;42650;-84
2023/01/29 18:29:18;;;;;;;11.07;8.50;;;;;;;0.45;65.23;99781.47;5138132;27;41994;-84
2023/01/29 18:31:48;;;;;;;11.77;7.73;;;;;;;0.53;64.83;99795.31;5121333;27;40134;-84
2023/01/29 18:34:16;;;;;;;8.63;7.03;;;;;;;0.46;64.80;99798.84;5138556;27;40764;-84
2023/01/29 18:36:46;;;;;;;9.70;7.23;;;;;;;0.35;64.80;99796.31;5122754;27;41951;-84
2023/01/29 18:39:15;;;;;;;10.93;8.07;;;;;;;0.29;64.33;99788.50;5123112;27;40986;-82
2023/01/29 18:41:44;;;;;;;9.80;7.43;;;;;;;0.25;64.39;99790.25;5124693;27;38496;-84
2023/01/29 18:44:12;;;;;;;11.10;7.77;;;;;;;0.33;64.05;99809.34;5122958;27;40909;-85
2023/01/29 18:46:40;;;;;;;12.07;8.43;;;;;;;0.08;64.09;99767.81;5122400;27;42354;-85
2023/01/29 18:49:07;;;;;;;11.03;7.27;;;;;;;0.15;64.38;99793.81;5122732;27;42137;-86
2023/01/29 18:51:35;;;;;;;11.57;7.97;;;;;;;0.05;64.24;99776.50;5122536;27;40324;-83
2023/01/29 18:54:04;;;;;;;12.00;8.83;;;;;;;0.16;64.22;99798.13;5121265;27;41032;-85
2023/01/29 18:56:33;;;;;;;16.17;9.70;;;;;;;0.15;65.17;99804.22;5121276;27;41230;-85
2023/01/29 18:59:01;;;;;;;11.30;8.83;;;;;;;-0.30;64.50;99703.81;5121029;27;42653;-85
2023/01/29 19:01:29;;;;;;;12.63;8.40;;;;;;;0.09;64.52;99777.34;5120869;27;40160;-84
2023/01/29 19:03:58;;;;;;;11.20;8.40;;;;;;;-0.05;64.62;99756.59;5120163;27;42721;-84
2023/01/29 19:06:26;;;;;;;14.03;10.30;;;;;;;0.06;65.16;99773.03;5120810;27;43495;-84
2023/01/29 19:08:54;;;;;;;15.00;9.73;;;;;;;-0.08;65.75;99743.59;5120734;27;41498;-82
2023/01/29 19:11:22;;;;;;;15.23;9.70;;;;;;;-0.31;66.28;99703.81;5120777;27;41681;-85
2023/01/29 19:13:51;;;;;;;15.37;9.60;;;;;;;-0.12;65.66;99742.72;5121006;27;42237;-85
2023/01/29 19:16:19;;;;;;;14.43;9.43;;;;;;;-0.12;66.63;99734.06;5120559;27;42734;-86
2023/01/29 19:18:47;;;;;;;12.07;9.27;;;;;;;-0.13;66.75;99724.56;5120623;27;41201;-86
2023/01/29 19:21:17;;;;;;;15.07;9.63;;;;;;;-0.09;66.33;99736.66;5106393;27;39145;-86
2023/01/29 19:23:45;;;;;;;14.07;9.83;;;;;;;-0.14;66.29;99733.22;5103041;27;41007;-86
2023/01/29 19:26:13;;;;;;;14.60;10.63;;;;;;;-0.18;67.58;99710.69;5115296;27;41959;-86
2023/01/29 19:28:41;;;;;;;13.93;9.83;;;;;;;-0.10;67.90;99730.56;5111529;27;41207;-88
2023/01/29 19:31:11;;;;;;;13.73;9.33;;;;;;;-0.07;67.68;99735.78;5098887;27;39115;-86
2023/01/29 19:33:39;;;;;;;14.90;10.20;;;;;;;-0.51;67.93;99655.34;5122851;27;40671;-85
2023/01/29 19:36:08;;;;;;;15.37;9.57;;;;;;;-0.18;67.53;99705.47;5115167;27;44669;-85
2023/01/29 19:38:37;;;;;;;12.50;8.97;;;;;;;-0.08;67.52;99728.84;5116566;27;41968;-84
2023/01/29 19:41:05;;;;;;;11.90;8.73;;;;;;;-0.10;67.32;99729.72;5111306;27;39212;-85
2023/01/29 19:43:33;;;;;;;11.90;9.00;;;;;;;-0.12;67.82;99724.50;5112141;27;42860;-86
2023/01/29 19:46:02;;;;;;;16.87;10.80;;;;;;;-0.13;67.68;99721.94;5110600;27;42959;-85
2023/01/29 19:48:32;;;;;;;13.80;10.03;;;;;;;-0.14;67.54;99728.03;5110986;27;41357;-85
2023/01/29 19:51:03;;;;;;;14.03;8.47;;;;;;;-0.16;67.23;99724.56;5110835;27;39100;-86
2023/01/29 19:53:31;;;;;;;12.43;9.00;;;;;;;-0.36;67.25;99696.88;5112182;27;40639;-88
2023/01/29 19:56:00;;;;;;;14.07;9.90;;;;;;;-0.46;67.35;99673.53;5113286;27;42253;-86
2023/01/29 19:58:43;;;;;;;19.93;12.20;;;;;;;-0.52;67.84;99674.44;5111981;27;43796;-87
2023/01/29 20:01:15;;;;;;;12.50;9.23;;;;;;;-0.27;67.90;99700.34;5110697;27;39074;-88
2023/01/29 20:03:46;;;;;;;14.40;10.43;;;;;;;-0.25;68.47;99698.59;5131461;27;40789;-86
2023/01/29 20:06:16;;;;;;;19.60;12.20;;;;;;;-0.40;68.37;99682.19;5113023;27;41866;-86
2023/01/29 20:08:45;;;;;;;16.10;10.23;;;;;;;-0.41;68.97;99671.78;5111192;27;41282;-86
2023/01/29 20:11:14;;;;;;;16.17;11.30;;;;;;;-0.45;68.88;99665.72;5110413;27;39198;-85
2023/01/29 20:13:41;;;;;;;22.27;12.33;;;;;;;-0.43;68.70;99682.19;5128184;27;41630;-87
2023/01/29 20:16:09;;;;;;;14.90;9.97;;;;;;;-0.45;68.48;99686.53;5113720;27;41830;-87
2023/01/29 20:18:37;;;;;;;14.57;9.40;;;;;;;-0.48;68.20;99686.53;5128776;27;43071;-87
2023/01/29 20:21:10;;;;;;;14.90;10.03;;;;;;;-0.52;68.24;99695.25;5110582;27;38756;-87
2023/01/29 20:23:39;;;;;;;13.13;9.17;;;;;;;-0.51;68.07;99702.19;5128626;27;42092;-87
2023/01/29 20:26:08;;;;;;;10.13;8.10;;;;;;;-0.55;67.84;99695.25;5114190;27;41678;-87
2023/01/29 20:28:36;;;;;;;15.43;9.77;;;;;;;-0.62;68.18;99693.56;5111881;27;42538;-87
2023/01/29 20:31:06;;;;;;;13.07;9.40;;;;;;;-0.60;68.29;99691.78;5113735;27;40101;-85
2023/01/29 20:33:35;;;;;;;15.87;10.60;;;;;;;-0.64;68.20;99697.91;5145475;27;40915;-86
2023/01/29 20:36:17;;;;;;;16.80;11.07;;;;;;;-0.62;68.44;99709.19;5113376;27;43087;-86
2023/01/29 20:38:46;;;;;;;13.63;9.87;;;;;;;-0.57;68.20;99723.00;5140952;27;42729;-86
2023/01/29 20:41:16;;;;;;;15.03;10.67;;;;;;;-0.60;68.29;99723.00;5112144;27;41666;-86
2023/01/29 20:43:44;;;;;;;16.97;10.73;;;;;;;-0.74;69.68;99688.38;5112853;27;40823;-85
2023/01/29 20:46:15;;;;;;;15.37;10.37;;;;;;;-0.77;69.25;99689.28;5110430;27;43254;-86
2023/01/29 20:48:43;;;;;;;14.97;10.93;;;;;;;-0.85;69.29;99679.75;5107832;27;42478;-88
2023/01/29 20:51:14;;;;;;;16.67;11.57;;;;;;;-0.65;70.01;99703.09;5114134;27;38828;-87
2023/01/29 20:53:44;;;;;;;15.00;10.50;;;;;;;-0.65;70.30;99706.56;5121237;27;41688;-87
2023/01/29 20:56:14;;;;;;;16.30;10.47;;;;;;;-0.75;70.51;99691.88;5107631;27;43779;-87
2023/01/29 21:01:23;;;;;;;17.97;11.30;;;;;;;-0.62;70.72;99703.09;5116434;27;39240;-86
2023/01/29 21:03:52;;;;;;;14.83;10.40;;;;;;;-0.75;70.36;99682.34;5116201;27;41046;-87
2023/01/29 21:06:21;;;;;;;16.80;10.07;;;;;;;-0.75;70.21;99676.28;5117210;27;43929;-87
2023/01/29 21:08:49;;;;;;;13.33;9.63;;;;;;;-0.68;70.65;99688.38;5118121;27;42704;-87
2023/01/29 21:11:18;;;;;;;20.13;11.70;;;;;;;-0.64;70.66;99697.03;5116881;27;38910;-87
2023/01/29 21:13:45;;;;;;;17.70;11.50;;;;;;;-0.63;70.85;99696.16;5119570;27;43412;-86
2023/01/29 21:16:13;;;;;;;18.27;10.63;;;;;;;-0.68;71.35;99671.91;5119816;27;43290;-86
2023/01/29 21:18:41;;;;;;;15.87;11.17;;;;;;;-0.80;70.89;99657.22;5134741;27;41591;-87
2023/01/29 21:21:09;;;;;;;16.77;11.53;;;;;;;-0.68;71.11;99677.97;5119435;27;38731;-87
2023/01/29 21:23:39;;;;;;;16.07;11.40;;;;;;;-0.79;70.83;99659.81;5118616;27;41694;-88
2023/01/29 21:26:07;;;;;;;17.70;12.00;;;;;;;-1.01;70.69;99623.50;5152925;27;42257;-86
2023/01/29 21:28:35;;;;;;;18.27;11.37;;;;;;;-0.73;70.59;99685.78;5117579;27;42494;-86
2023/01/29 21:31:05;;;;;;;18.70;12.47;;;;;;;-0.73;71.15;99674.50;5118023;27;38993;-86